Terminal Aerodrome Forecast
Issued by NWS

Home | Current Version | Previous Version | Text Only | Print | Product List | Glossary On
Versions: 1 2 3 4 5 6 7 8 9 10 11 12 13 14
340
FTUS46 KMFR 030544
TAFRBG
TAF
KRBG 030544Z 0306/0406 VRB03KT P6SM FEW050 BKN080
     FM031200 VRB03KT P6SM BKN020
     FM032000 35005KT P6SM VCSH SCT020 BKN100
     FM040100 35004KT P6SM -SHRA BKN020 OVC060=

USA.gov is the U.S. government's official web portal to all federal, state and local government web resources and services.